Time;durP1;ratioP1;P1;durP2;ratioP2;P2;SDS_P1;SDS_P2;PMS_P1;PMS_P2;Temp;Humidity;BMP_temperature;BMP_pressure;BME280_temperature;BME280_humidity;BME280_pressure;Samples;Min_cycle;Max_cycle;Signal;HPM_P1;HPM_P2
2022/01/20 00:00:14;;;;;;;38.35;4.57;;;;;;;2.43;100.00;102448.03;5088616;28;20434;-79
2022/01/20 00:02:41;;;;;;;32.35;5.13;;;;;;;2.39;100.00;102447.19;5087600;28;20559;-79
2022/01/20 00:05:26;;;;;;;35.47;5.35;;;;;;;2.39;100.00;102443.72;5087854;28;20496;-79
2022/01/20 00:27:07;;;;;;;28.52;5.00;;;;;;;2.20;100.00;102456.13;5091117;28;20039;-79
2022/01/20 00:29:47;;;;;;;29.88;4.90;;;;;;;2.16;100.00;102450.13;5091054;28;20059;-79
2022/01/20 00:32:13;;;;;;;31.58;4.75;;;;;;;2.11;100.00;102451.91;5093156;28;20050;-79
2022/01/20 00:37:26;;;;;;;26.95;4.47;;;;;;;2.07;99.53;102454.56;5092910;28;20112;-79
2022/01/20 00:39:53;;;;;;;31.05;5.20;;;;;;;2.04;100.00;102459.81;5093582;28;20024;-79
2022/01/20 00:42:18;;;;;;;38.70;5.72;;;;;;;2.04;100.00;102459.81;5090997;28;20028;-79
2022/01/20 00:44:44;;;;;;;32.97;4.45;;;;;;;2.01;100.00;102462.44;5091947;28;20759;-78
2022/01/20 00:47:10;;;;;;;30.95;5.18;;;;;;;1.99;100.00;102462.44;5093172;28;20112;-79
2022/01/20 00:49:35;;;;;;;32.10;4.60;;;;;;;1.96;100.00;102452.09;5091360;28;20465;-79
2022/01/20 00:52:01;;;;;;;26.17;4.55;;;;;;;1.95;100.00;102441.72;5108149;28;20903;-79
2022/01/20 00:54:27;;;;;;;36.42;4.63;;;;;;;1.97;100.00;102452.94;5090697;28;20023;-78
2022/01/20 00:56:52;;;;;;;28.23;4.72;;;;;;;1.96;100.00;102446.03;5092056;28;20055;-79
2022/01/20 00:59:18;;;;;;;30.85;4.50;;;;;;;1.96;100.00;102456.41;5089700;28;20031;-79
2022/01/20 01:01:44;;;;;;;32.97;4.75;;;;;;;1.95;100.00;102454.69;5090007;28;20111;-79
2022/01/20 01:04:09;;;;;;;28.88;5.10;;;;;;;1.99;100.00;102470.22;5092303;28;20024;-78
2022/01/20 01:09:09;;;;;;;32.20;4.70;;;;;;;2.07;100.00;102472.75;5071435;28;20552;-78
2022/01/20 01:11:37;;;;;;;30.08;4.00;;;;;;;2.12;100.00;102478.72;5070964;28;20086;-77
2022/01/20 01:14:04;;;;;;;35.83;4.40;;;;;;;2.18;100.00;102473.47;5082544;28;20024;-78
2022/01/20 01:24:39;;;;;;;24.30;3.53;;;;;;;2.35;100.00;102487.06;5091274;28;20028;-77
2022/01/20 01:27:05;;;;;;;31.85;4.25;;;;;;;2.37;100.00;102480.09;5092038;28;20387;-77
2022/01/20 01:29:54;;;;;;;24.33;3.33;;;;;;;2.38;100.00;102480.97;5091832;28;20108;-77
2022/01/20 01:32:20;;;;;;;27.95;3.70;;;;;;;2.37;100.00;102477.50;5090388;28;20024;-77
2022/01/20 01:34:51;;;;;;;20.05;3.30;;;;;;;2.39;100.00;102483.53;5088826;28;20059;-77
2022/01/20 01:39:59;;;;;;;22.00;3.45;;;;;;;2.44;100.00;102484.38;5092191;28;20028;-77
2022/01/20 01:42:31;;;;;;;27.42;3.72;;;;;;;2.42;100.00;102483.53;5091350;28;20085;-77
2022/01/20 01:45:04;;;;;;;;;;;;;;;2.52;100.00;102484.25;5090761;28;20150;-78
2022/01/20 01:47:30;;;;;;;32.13;3.35;;;;;;;2.43;100.00;102482.66;5091559;28;20261;-77
2022/01/20 01:49:55;;;;;;;28.35;3.58;;;;;;;2.43;100.00;102485.25;5090674;28;20036;-78
2022/01/20 01:52:20;;;;;;;27.35;3.58;;;;;;;2.42;100.00;102488.72;5085403;28;20032;-78
2022/01/20 01:54:46;;;;;;;25.17;3.80;;;;;;;2.41;100.00;102492.19;5092276;28;20432;-77
2022/01/20 01:57:14;;;;;;;28.35;3.67;;;;;;;2.40;100.00;102487.00;5089917;28;20046;-78
2022/01/20 01:59:39;;;;;;;23.95;3.42;;;;;;;2.37;100.00;102487.91;5090292;28;20111;-78
2022/01/20 02:02:05;;;;;;;25.77;3.42;;;;;;;2.40;100.00;102490.50;5091353;28;20107;-77
2022/01/20 02:04:30;;;;;;;29.17;3.20;;;;;;;2.38;100.00;102487.03;5090495;28;20206;-78
2022/01/20 02:07:24;;;;;;;29.10;3.60;;;;;;;2.37;100.00;102476.66;5083835;28;20035;-78
2022/01/20 02:17:55;;;;;;;18.30;2.90;;;;;;;2.38;100.00;102474.03;5090410;28;20407;-78
2022/01/20 02:20:20;;;;;;;15.27;2.85;;;;;;;2.42;100.00;102487.88;5088153;28;20024;-78
2022/01/20 02:22:46;;;;;;;18.98;2.35;;;;;;;2.44;100.00;102491.31;5089529;28;20418;-77
2022/01/20 02:25:18;;;;;;;18.02;2.47;;;;;;;2.48;100.00;102495.56;5084898;28;20032;-78
2022/01/20 02:27:43;;;;;;;19.50;2.63;;;;;;;2.54;100.00;102499.81;5068137;28;20047;-78
2022/01/20 02:30:09;;;;;;;16.73;2.42;;;;;;;2.57;100.00;102497.19;5070313;28;20052;-78
2022/01/20 02:32:35;;;;;;;19.02;2.50;;;;;;;2.62;100.00;102491.03;5069610;28;20017;-78
2022/01/20 02:35:02;;;;;;;16.85;2.95;;;;;;;2.65;100.00;102495.31;5069551;28;20097;-78
2022/01/20 02:37:27;;;;;;;17.00;2.40;;;;;;;2.65;100.00;102482.31;5069655;28;20498;-77
2022/01/20 02:45:20;;;;;;;17.85;2.40;;;;;;;2.75;100.00;102478.69;5089158;28;20097;-78
2022/01/20 02:47:59;;;;;;;12.60;2.15;;;;;;;2.78;100.00;102476.06;5089605;28;20427;-78
2022/01/20 02:50:24;;;;;;;19.30;2.10;;;;;;;2.81;100.00;102486.44;5088202;28;20038;-78
2022/01/20 02:52:49;;;;;;;16.45;2.35;;;;;;;2.80;100.00;102479.47;5090218;28;20388;-77
2022/01/20 02:55:15;;;;;;;19.48;2.72;;;;;;;2.86;100.00;102492.41;5089319;28;20571;-78
2022/01/20 02:57:40;;;;;;;24.65;2.65;;;;;;;2.86;100.00;102486.34;5084545;28;20138;-78
2022/01/20 03:00:07;;;;;;;25.52;2.80;;;;;;;2.88;100.00;102482.84;5069771;28;20017;-77
2022/01/20 03:02:32;;;;;;;13.48;2.25;;;;;;;2.85;100.00;102472.50;5069172;28;20158;-78
2022/01/20 03:04:57;;;;;;;17.48;3.20;;;;;;;2.85;100.00;102469.91;5069184;28;20099;-77
2022/01/20 03:07:23;;;;;;;23.30;2.90;;;;;;;2.84;100.00;102457.78;5068775;28;20028;-77
2022/01/20 03:09:48;;;;;;;18.73;2.60;;;;;;;2.84;100.00;102460.38;5069268;28;20059;-78
2022/01/20 03:12:13;;;;;;;21.65;2.95;;;;;;;2.80;100.00;102453.50;5069534;28;20028;-79
2022/01/20 03:14:39;;;;;;;18.08;2.75;;;;;;;2.81;100.00;102465.63;5079931;28;20039;-77
2022/01/20 03:17:04;;;;;;;16.17;2.58;;;;;;;2.78;100.00;102468.25;5089267;28;20028;-78
2022/01/20 03:19:30;;;;;;;13.50;2.58;;;;;;;2.75;100.00;102466.56;5089813;28;20020;-78
2022/01/20 03:21:56;;;;;;;16.13;3.10;;;;;;;2.71;100.00;102448.44;5090470;28;20020;-78
2022/01/20 03:24:22;;;;;;;21.50;2.70;;;;;;;2.71;100.00;102443.25;5089200;28;20102;-78
2022/01/20 03:26:47;;;;;;;21.73;2.58;;;;;;;2.69;100.00;102450.22;5090474;28;20028;-78
2022/01/20 03:29:13;;;;;;;17.38;2.60;;;;;;;2.65;100.00;102445.94;5089890;28;20109;-78
2022/01/20 03:31:39;;;;;;;18.27;2.75;;;;;;;2.63;100.00;102452.91;5085601;28;20600;-78
2022/01/20 03:34:04;;;;;;;18.42;2.92;;;;;;;2.62;100.00;102449.44;5090176;28;20088;-77
2022/01/20 03:36:30;;;;;;;21.98;3.28;;;;;;;2.58;100.00;102458.19;5088573;28;20054;-78
2022/01/20 03:38:55;;;;;;;22.05;3.47;;;;;;;2.58;100.00;102446.94;5089427;28;20365;-78
2022/01/20 03:41:20;;;;;;;17.67;2.63;;;;;;;2.57;100.00;102440.88;5088680;28;20453;-78
2022/01/20 03:43:46;;;;;;;15.55;2.60;;;;;;;2.56;100.00;102448.69;5088538;28;20379;-77
2022/01/20 03:46:13;;;;;;;18.55;2.75;;;;;;;2.53;100.00;102469.53;5088943;28;20020;-78
2022/01/20 03:48:55;;;;;;;20.45;2.95;;;;;;;2.50;100.00;102452.25;5087253;28;20113;-80
2022/01/20 03:51:23;;;;;;;15.82;2.42;;;;;;;2.47;100.00;102447.94;5088244;28;20380;-80
2022/01/20 03:53:51;;;;;;;14.80;2.60;;;;;;;2.46;100.00;102450.56;5089140;28;20107;-81
2022/01/20 03:56:18;;;;;;;20.50;2.85;;;;;;;2.46;100.00;102453.19;5088764;28;20055;-80
2022/01/20 03:58:44;;;;;;;15.50;2.50;;;;;;;2.43;100.00;102443.69;5088043;28;20120;-82
2022/01/20 04:01:10;;;;;;;18.90;2.65;;;;;;;2.41;100.00;102445.44;5089074;28;20024;-81
2022/01/20 04:03:36;;;;;;;17.13;2.45;;;;;;;2.40;100.00;102446.34;5086057;28;20092;-80
2022/01/20 04:06:02;;;;;;;17.88;2.40;;;;;;;2.38;100.00;102450.66;5085147;28;20034;-80
2022/01/20 04:08:31;;;;;;;20.73;2.78;;;;;;;2.37;100.00;102456.72;5066430;28;20107;-78
2022/01/20 04:11:01;;;;;;;25.67;2.83;;;;;;;2.36;100.00;102457.63;5084238;28;20070;-77
2022/01/20 04:13:30;;;;;;;23.52;2.75;;;;;;;2.32;100.00;102460.28;5073185;28;20063;-78
2022/01/20 04:15:56;;;;;;;22.20;2.47;;;;;;;2.35;100.00;102471.47;5088761;28;20020;-78
2022/01/20 04:18:26;;;;;;;20.20;2.85;;;;;;;2.32;100.00;102468.94;5089052;28;20036;-78
2022/01/20 04:20:51;;;;;;;17.90;2.65;;;;;;;2.32;100.00;102466.34;5087329;28;20420;-78
2022/01/20 04:23:17;;;;;;;19.23;2.67;;;;;;;2.33;100.00;102468.03;5089563;28;20032;-78
2022/01/20 04:25:42;;;;;;;24.15;2.65;;;;;;;2.35;100.00;102471.47;5088700;28;20020;-78
2022/01/20 04:28:08;;;;;;;19.67;2.60;;;;;;;2.38;100.00;102478.38;5105536;28;20031;-78
2022/01/20 04:30:33;;;;;;;20.00;2.75;;;;;;;2.39;100.00;102478.34;5088794;28;20021;-78
2022/01/20 04:32:59;;;;;;;22.38;2.92;;;;;;;2.42;100.00;102475.75;5104617;28;20032;-78
2022/01/20 04:35:25;;;;;;;23.45;2.65;;;;;;;2.43;100.00;102485.25;5087133;28;20055;-78
2022/01/20 04:37:52;;;;;;;25.45;2.92;;;;;;;2.49;100.00;102505.09;5087981;28;20028;-78
2022/01/20 04:40:21;;;;;;;21.13;3.00;;;;;;;2.48;100.00;102493.84;5087109;28;20020;-78
2022/01/20 04:42:48;;;;;;;21.77;2.70;;;;;;;2.54;100.00;102499.81;5089152;28;20067;-78
2022/01/20 04:45:20;;;;;;;25.17;4.00;;;;;;;2.55;100.00;102504.13;5087703;28;20150;-78
2022/01/20 04:58:46;;;;;;;26.65;3.35;;;;;;;2.56;100.00;102506.72;5088579;28;20411;-80
2022/01/20 05:01:12;;;;;;;22.55;2.92;;;;;;;2.57;100.00;102507.56;5086522;28;20012;-78
2022/01/20 05:03:37;;;;;;;23.92;3.13;;;;;;;2.54;100.00;102513.66;5077527;28;20039;-78
2022/01/20 05:06:02;;;;;;;27.30;3.75;;;;;;;2.57;100.00;102524.00;5087351;28;20020;-78
2022/01/20 05:08:30;;;;;;;20.13;3.45;;;;;;;2.59;100.00;102527.44;5084326;28;20383;-78
2022/01/20 05:10:55;;;;;;;20.77;3.05;;;;;;;2.61;100.00;102532.63;5105573;28;20102;-78
2022/01/20 05:13:32;;;;;;;25.25;3.67;;;;;;;2.62;100.00;102539.53;5090617;28;20103;-78
2022/01/20 05:15:57;;;;;;;24.52;3.42;;;;;;;2.62;100.00;102536.94;5091675;28;20388;-80
2022/01/20 05:18:23;;;;;;;28.42;3.45;;;;;;;2.66;100.00;102531.69;5091532;28;20031;-81
2022/01/20 05:20:48;;;;;;;29.25;3.13;;;;;;;2.66;100.00;102528.22;5091878;28;20468;-80
2022/01/20 05:23:14;;;;;;;24.60;3.35;;;;;;;2.68;100.00;102535.09;5089907;28;20476;-80
2022/01/20 05:25:39;;;;;;;21.60;2.80;;;;;;;2.70;100.00;102548.09;5091586;28;20141;-80
2022/01/20 05:28:05;;;;;;;21.65;3.83;;;;;;;2.71;100.00;102552.41;5100099;28;20028;-80
2022/01/20 05:30:30;;;;;;;30.88;3.40;;;;;;;2.72;100.00;102554.13;5068699;28;20067;-78
2022/01/20 05:32:55;;;;;;;26.65;3.50;;;;;;;2.71;100.00;102549.78;5071196;28;20032;-80
2022/01/20 05:35:21;;;;;;;20.90;3.28;;;;;;;2.74;100.00;102549.75;5069455;28;20076;-81
2022/01/20 05:37:46;;;;;;;24.67;3.22;;;;;;;2.72;100.00;102549.78;5071346;28;20465;-81
2022/01/20 05:40:15;;;;;;;24.13;2.97;;;;;;;2.72;100.00;102564.50;5071952;28;20029;-80
2022/01/20 05:42:40;;;;;;;21.42;2.75;;;;;;;2.73;100.00;102574.88;5071776;28;20035;-78
2022/01/20 05:45:07;;;;;;;25.48;2.70;;;;;;;2.78;100.00;102567.00;5071581;28;20028;-78
2022/01/20 05:47:35;;;;;;;17.42;2.03;;;;;;;2.78;100.00;102565.28;5084853;28;20484;-78
2022/01/20 05:50:00;;;;;;;16.30;2.10;;;;;;;2.76;100.00;102576.56;5090475;28;20031;-78
2022/01/20 05:52:26;;;;;;;13.40;2.20;;;;;;;2.74;100.00;102583.53;5091492;28;20247;-77
2022/01/20 05:54:52;;;;;;;15.73;2.10;;;;;;;2.73;100.00;102587.88;5092351;28;20518;-80
2022/01/20 05:57:17;;;;;;;12.90;2.20;;;;;;;2.71;100.00;102592.25;5091468;28;20541;-80
2022/01/20 05:59:42;;;;;;;13.63;2.05;;;;;;;2.74;100.00;102599.13;5091816;28;20035;-80
2022/01/20 06:02:29;;;;;;;13.35;2.50;;;;;;;2.69;100.00;102598.34;5091065;28;20282;-80
2022/01/20 06:04:54;;;;;;;14.25;2.47;;;;;;;2.72;100.00;102608.69;5071343;28;20020;-80
2022/01/20 06:07:21;;;;;;;10.88;1.80;;;;;;;2.72;100.00;102606.09;5070752;28;20488;-80
2022/01/20 06:09:46;;;;;;;15.55;2.33;;;;;;;2.69;100.00;102601.78;5071169;28;20892;-77
2022/01/20 06:12:12;;;;;;;11.68;2.40;;;;;;;2.68;100.00;102605.28;5069822;28;20017;-77
2022/01/20 06:14:37;;;;;;;17.40;2.72;;;;;;;2.71;100.00;102619.97;5086199;28;20077;-79
2022/01/20 06:17:04;;;;;;;15.63;2.30;;;;;;;2.71;100.00;102619.97;5090953;28;20012;-77
2022/01/20 06:19:29;;;;;;;20.45;2.33;;;;;;;2.70;100.00;102620.84;5082545;28;20028;-78
2022/01/20 06:21:55;;;;;;;21.95;3.00;;;;;;;2.68;100.00;102620.00;5068463;28;20020;-78
2022/01/20 06:24:20;;;;;;;20.25;2.90;;;;;;;2.67;100.00;102619.16;5069970;28;20035;-78
2022/01/20 06:26:45;;;;;;;18.75;2.53;;;;;;;2.66;100.00;102629.56;5068541;28;20021;-80
2022/01/20 06:29:14;;;;;;;21.02;2.90;;;;;;;2.68;100.00;102640.78;5070464;28;20056;-80
2022/01/20 06:31:39;;;;;;;23.52;2.85;;;;;;;2.69;100.00;102647.72;5070212;28;20397;-78
2022/01/20 06:34:04;;;;;;;22.00;3.35;;;;;;;2.67;99.85;102644.28;5069901;28;20016;-80
2022/01/20 06:36:30;;;;;;;16.08;2.90;;;;;;;2.65;100.00;102646.03;5069790;28;20039;-80
2022/01/20 06:38:55;;;;;;;16.65;2.60;;;;;;;2.65;100.00;102646.03;5083019;28;20067;-80
2022/01/20 06:41:20;;;;;;;14.55;2.63;;;;;;;2.63;100.00;102632.19;5069299;28;20052;-80
2022/01/20 06:43:46;;;;;;;23.05;2.90;;;;;;;2.64;99.99;102639.13;5070227;28;20636;-81
2022/01/20 06:46:14;;;;;;;22.77;3.40;;;;;;;2.63;100.00;102643.44;5068179;28;20087;-80
2022/01/20 06:48:40;;;;;;;22.92;2.60;;;;;;;2.60;99.82;102647.81;5070464;28;20025;-80
2022/01/20 06:51:05;;;;;;;23.35;2.80;;;;;;;2.63;99.95;102658.19;5070937;28;20032;-80
2022/01/20 06:53:30;;;;;;;17.95;2.60;;;;;;;2.60;99.51;102663.41;5068983;28;20463;-81
2022/01/20 06:55:56;;;;;;;22.63;3.45;;;;;;;2.60;99.85;102666.00;5089590;28;20030;-78
2022/01/20 06:58:23;;;;;;;20.13;3.13;;;;;;;2.58;99.92;102675.56;5090394;28;20020;-79
2022/01/20 07:00:48;;;;;;;23.67;3.15;;;;;;;2.58;99.46;102670.38;5090599;28;20536;-78
2022/01/20 07:03:13;;;;;;;27.60;3.25;;;;;;;2.57;99.33;102679.03;5090600;28;20106;-78
2022/01/20 07:05:39;;;;;;;21.05;3.08;;;;;;;2.57;98.93;102681.66;5090465;28;20388;-79
2022/01/20 07:08:04;;;;;;;26.08;3.20;;;;;;;2.54;99.00;102685.13;5069714;28;20036;-79
2022/01/20 07:10:29;;;;;;;27.60;3.75;;;;;;;2.51;98.99;102686.03;5073888;28;20028;-79
2022/01/20 07:12:55;;;;;;;22.05;3.25;;;;;;;2.53;98.68;102690.34;5089326;28;20056;-79
2022/01/20 07:15:20;;;;;;;21.08;3.55;;;;;;;2.48;98.65;102696.47;5088196;28;20030;-78
2022/01/20 07:17:46;;;;;;;28.60;3.95;;;;;;;2.48;98.54;102696.47;5105871;28;20020;-78
2022/01/20 07:20:15;;;;;;;24.58;3.58;;;;;;;2.48;98.67;102695.59;5105784;28;20119;-78
2022/01/20 07:22:44;;;;;;;31.98;3.60;;;;;;;2.45;98.78;102696.50;5087867;28;20031;-78
2022/01/20 07:25:09;;;;;;;32.78;3.63;;;;;;;2.43;98.52;102703.44;5105516;28;20051;-79
2022/01/20 07:27:35;;;;;;;25.70;3.90;;;;;;;2.44;98.42;102717.28;5086710;28;20443;-79
2022/01/20 07:30:00;;;;;;;25.60;3.95;;;;;;;2.39;98.46;102717.31;5084110;28;20043;-78
2022/01/20 07:32:25;;;;;;;28.10;3.45;;;;;;;2.39;98.33;102716.44;5068240;28;20032;-79
2022/01/20 07:34:51;;;;;;;21.75;3.13;;;;;;;2.39;99.09;102727.69;5068616;28;20489;-79
2022/01/20 07:37:16;;;;;;;27.00;3.38;;;;;;;2.40;98.70;102737.25;5068576;28;20485;-78
2022/01/20 07:39:41;;;;;;;27.52;3.65;;;;;;;2.40;98.01;102744.16;5067863;28;20013;-79
2022/01/20 07:42:08;;;;;;;27.70;3.92;;;;;;;2.37;98.41;102733.78;5068031;28;20058;-79
2022/01/20 07:44:33;;;;;;;22.50;3.53;;;;;;;2.37;97.79;102739.84;5073596;28;20044;-79
2022/01/20 07:46:59;;;;;;;34.10;3.53;;;;;;;2.36;98.12;102735.53;5068652;28;20020;-79
2022/01/20 07:49:25;;;;;;;28.75;3.60;;;;;;;2.35;98.30;102740.75;5084518;28;20032;-79
2022/01/20 07:51:51;;;;;;;24.33;3.95;;;;;;;2.37;98.14;102749.38;5088975;28;20046;-79
2022/01/20 07:54:16;;;;;;;28.25;3.85;;;;;;;2.34;98.41;102750.25;5088937;28;20024;-79
2022/01/20 07:56:41;;;;;;;27.83;4.13;;;;;;;2.35;98.58;102759.78;5088315;28;20471;-79
2022/01/20 07:59:08;;;;;;;21.92;3.17;;;;;;;2.33;98.52;102753.75;5073579;28;20028;-79
2022/01/20 08:01:33;;;;;;;24.25;4.03;;;;;;;2.34;98.08;102765.84;5073843;28;20024;-80
2022/01/20 08:04:00;;;;;;;28.63;4.38;;;;;;;2.32;98.82;102757.22;5087754;28;20087;-79
2022/01/20 08:06:25;;;;;;;26.02;3.97;;;;;;;2.34;98.51;102752.88;5082851;28;20032;-79
2022/01/20 08:08:51;;;;;;;26.73;3.72;;;;;;;2.35;98.59;102761.50;5074854;28;20024;-79
2022/01/20 08:11:21;;;;;;;26.95;3.78;;;;;;;2.35;99.34;102766.72;5077508;28;20487;-79
2022/01/20 08:13:47;;;;;;;25.17;4.10;;;;;;;2.32;98.80;102775.38;5079759;28;20047;-79
2022/01/20 08:16:12;;;;;;;27.23;4.30;;;;;;;2.34;99.32;102785.75;5078225;28;20267;-78
2022/01/20 08:18:38;;;;;;;26.50;4.53;;;;;;;2.33;98.50;102784.03;5082232;28;20024;-80
2022/01/20 08:21:03;;;;;;;26.45;4.00;;;;;;;2.33;99.15;102784.91;5095506;28;20123;-79
2022/01/20 08:23:29;;;;;;;27.17;4.13;;;;;;;2.34;98.27;102786.63;5077327;28;20341;-79
2022/01/20 08:25:54;;;;;;;24.02;4.05;;;;;;;2.35;98.37;102798.75;5077812;28;20103;-79
2022/01/20 08:28:22;;;;;;;20.38;3.55;;;;;;;2.33;98.25;102791.84;5078965;28;20024;-79
2022/01/20 08:30:47;;;;;;;20.20;3.42;;;;;;;2.32;98.15;102793.56;5078112;28;20024;-79
2022/01/20 08:33:14;;;;;;;26.85;4.07;;;;;;;2.33;98.38;102797.88;5078392;28;20066;-78
2022/01/20 08:35:40;;;;;;;25.33;3.55;;;;;;;2.30;97.78;102792.72;5079543;28;20067;-79
2022/01/20 08:38:07;;;;;;;23.25;3.50;;;;;;;2.33;97.75;102800.50;5081308;28;20024;-78
2022/01/20 08:40:34;;;;;;;21.63;3.38;;;;;;;2.32;97.76;102801.38;5076527;28;20039;-78
2022/01/20 08:42:59;;;;;;;26.13;3.90;;;;;;;2.32;97.39;102798.75;5077773;28;20078;-79
2022/01/20 08:45:29;;;;;;;25.52;3.42;;;;;;;2.31;97.05;102802.25;5099971;28;20147;-80
2022/01/20 08:47:57;;;;;;;19.88;3.33;;;;;;;2.31;96.69;102812.63;5078464;28;20392;-79
2022/01/20 08:50:24;;;;;;;20.45;3.17;;;;;;;2.37;96.64;102807.38;5070818;28;20134;-79
2022/01/20 08:52:51;;;;;;;21.40;2.40;;;;;;;2.36;95.59;102813.44;5079405;28;20020;-79
2022/01/20 08:55:16;;;;;;;17.58;2.42;;;;;;;2.33;95.43;102816.06;5086635;28;20383;-80
2022/01/20 08:57:43;;;;;;;20.40;3.28;;;;;;;2.34;95.87;102815.19;5091278;28;20024;-80
2022/01/20 09:00:12;;;;;;;21.92;2.90;;;;;;;2.31;95.11;102817.81;5090580;28;20089;-81
2022/01/20 09:02:38;;;;;;;19.90;2.95;;;;;;;2.33;94.91;102818.66;5092433;28;20016;-80
2022/01/20 09:05:05;;;;;;;19.50;2.60;;;;;;;2.34;95.39;102817.78;5092539;28;20073;-81
2022/01/20 09:07:30;;;;;;;22.33;3.13;;;;;;;2.36;95.23;102831.63;5091319;28;20103;-80
2022/01/20 09:09:59;;;;;;;15.75;2.70;;;;;;;2.37;94.26;102838.53;5092624;28;20027;-80
2022/01/20 09:17:52;;;;;;;17.58;2.53;;;;;;;2.37;94.48;102850.69;5073057;28;20090;-80
2022/01/20 09:20:18;;;;;;;14.60;2.33;;;;;;;2.40;94.84;102859.34;5072356;28;20028;-82
2022/01/20 09:22:43;;;;;;;20.80;3.28;;;;;;;2.41;94.86;102861.06;5071868;28;20099;-82
2022/01/20 09:25:09;;;;;;;19.80;2.70;;;;;;;2.44;94.75;102866.22;5088372;28;20032;-81
2022/01/20 09:27:34;;;;;;;19.63;2.58;;;;;;;2.45;95.38;102867.94;5070725;28;20077;-80
2022/01/20 09:30:02;;;;;;;24.52;2.88;;;;;;;2.45;95.36;102854.97;5071853;28;20385;-81
2022/01/20 09:32:30;;;;;;;18.50;2.60;;;;;;;2.48;94.98;102862.72;5071833;28;20040;-80
2022/01/20 09:34:56;;;;;;;14.65;2.42;;;;;;;2.48;95.74;102852.34;5072128;28;20057;-80
2022/01/20 09:37:22;;;;;;;14.02;2.60;;;;;;;2.46;94.80;102848.88;5071901;28;20017;-80
2022/01/20 09:39:48;;;;;;;17.48;2.75;;;;;;;2.46;94.16;102851.50;5087331;28;20421;-80
2022/01/20 09:42:13;;;;;;;22.58;2.80;;;;;;;2.51;94.75;102843.66;5070364;28;20036;-83
2022/01/20 09:44:44;;;;;;;19.63;3.05;;;;;;;2.55;94.38;102844.47;5072350;28;20040;-83
2022/01/20 09:47:10;;;;;;;16.65;2.63;;;;;;;2.58;94.71;102849.66;5090598;28;20028;-83
2022/01/20 09:49:37;;;;;;;20.58;3.40;;;;;;;2.60;94.32;102846.16;5087581;28;20019;-83
2022/01/20 09:52:03;;;;;;;15.35;2.60;;;;;;;2.65;94.20;102857.38;5090340;28;20098;-83
2022/01/20 09:54:28;;;;;;;19.77;2.88;;;;;;;2.66;94.06;102855.63;5104974;28;20028;-83
2022/01/20 09:56:55;;;;;;;14.75;2.70;;;;;;;2.70;94.11;102868.59;5089586;28;20496;-80
2022/01/20 09:59:21;;;;;;;19.30;2.90;;;;;;;2.72;93.33;102871.19;5087531;28;20031;-80
2022/01/20 10:01:49;;;;;;;15.30;2.75;;;;;;;2.73;93.11;102878.09;5090021;28;20019;-80
2022/01/20 10:04:32;;;;;;;18.60;2.90;;;;;;;2.76;93.30;102894.53;5088768;28;20024;-80
2022/01/20 10:07:02;;;;;;;18.10;2.95;;;;;;;2.75;92.40;102902.34;5088142;28;20031;-80
2022/01/20 10:09:35;;;;;;;19.70;2.80;;;;;;;2.77;92.81;102900.59;5089422;28;20012;-80
2022/01/20 10:12:01;;;;;;;18.17;2.53;;;;;;;2.80;93.08;102900.56;5081361;28;20097;-80
2022/01/20 10:14:47;;;;;;;12.18;2.85;;;;;;;2.81;92.49;102897.13;5088596;28;20077;-80
2022/01/20 10:17:30;;;;;;;13.75;2.28;;;;;;;2.86;92.37;102905.72;5087764;28;20058;-80
2022/01/20 10:20:14;;;;;;;;;;;;;;;2.93;94.18;102902.19;5081333;28;20480;-80
2022/01/20 10:22:40;;;;;;;19.65;3.33;;;;;;;2.89;92.99;102905.69;5105707;28;20824;-80
2022/01/20 10:25:08;;;;;;;15.52;2.80;;;;;;;2.95;92.46;102915.19;5088383;28;20111;-80
2022/01/20 10:27:46;;;;;;;16.60;2.72;;;;;;;2.98;91.93;102915.16;5088383;28;20016;-80
2022/01/20 10:30:15;;;;;;;17.85;2.20;;;;;;;3.02;90.87;102911.63;5090250;28;20034;-79
2022/01/20 10:32:46;;;;;;;19.55;3.22;;;;;;;3.06;91.18;102918.53;5088114;28;20035;-79
2022/01/20 10:35:14;;;;;;;19.83;2.78;;;;;;;3.09;90.58;102929.75;5085366;28;20131;-79
2022/01/20 10:37:51;;;;;;;24.98;3.13;;;;;;;3.16;89.87;102933.16;5083417;28;20149;-79
2022/01/20 10:40:17;;;;;;;19.25;2.90;;;;;;;3.19;88.34;102933.13;5088381;28;20016;-79
2022/01/20 10:42:45;;;;;;;20.08;3.30;;;;;;;3.28;89.35;102935.66;5077443;28;20518;-79
2022/01/20 10:45:28;;;;;;;15.63;2.13;;;;;;;3.35;88.67;102928.66;5085063;28;20025;-79
2022/01/20 10:47:58;;;;;;;17.70;3.03;;;;;;;3.43;88.59;102934.63;5088056;28;20089;-80
2022/01/20 10:50:29;;;;;;;21.88;2.53;;;;;;;3.49;87.07;102933.69;5087615;28;20126;-79
2022/01/20 10:52:55;;;;;;;18.63;2.97;;;;;;;3.53;85.22;102927.59;5087948;28;20119;-79
2022/01/20 10:55:24;;;;;;;16.65;2.80;;;;;;;3.55;86.42;102934.50;5082465;28;20387;-79
2022/01/20 10:57:52;;;;;;;18.13;2.97;;;;;;;3.57;85.25;102924.06;5086368;28;20412;-79
2022/01/20 11:00:19;;;;;;;20.13;2.92;;;;;;;3.57;84.66;102917.13;5085521;28;20111;-79
2022/01/20 11:02:53;;;;;;;24.08;3.40;;;;;;;3.58;82.97;102917.97;5086478;28;20476;-79
2022/01/20 11:05:23;;;;;;;19.25;2.97;;;;;;;3.60;84.01;102921.41;5085815;28;20028;-79
2022/01/20 11:07:49;;;;;;;23.38;2.83;;;;;;;3.63;81.93;102922.28;5083991;28;20118;-79
2022/01/20 11:10:16;;;;;;;13.57;2.63;;;;;;;3.64;82.95;102926.59;5085830;28;20094;-79
2022/01/20 11:12:42;;;;;;;21.80;2.90;;;;;;;3.62;83.44;102928.38;5087427;28;20028;-78
2022/01/20 11:15:15;;;;;;;19.42;3.00;;;;;;;3.64;83.28;102925.75;5085158;28;20047;-79
2022/01/20 11:17:42;;;;;;;25.75;3.13;;;;;;;3.63;82.85;102924.88;5085579;28;20093;-79
2022/01/20 11:20:09;;;;;;;20.45;2.80;;;;;;;3.63;81.70;102930.09;5075849;28;20020;-79
2022/01/20 11:22:36;;;;;;;18.75;2.33;;;;;;;3.64;80.91;102923.13;5084308;28;20029;-79
2022/01/20 11:25:08;;;;;;;17.52;3.15;;;;;;;3.63;82.63;102927.47;5087845;28;20061;-79
2022/01/20 11:27:43;;;;;;;16.95;2.63;;;;;;;3.64;82.09;102939.63;5084795;28;20016;-79
2022/01/20 11:30:14;;;;;;;15.10;2.70;;;;;;;3.64;81.99;102929.22;5097988;28;20033;-79
2022/01/20 11:32:39;;;;;;;28.48;3.42;;;;;;;3.72;81.67;102927.38;5087430;28;20481;-80
2022/01/20 11:35:07;;;;;;;17.63;3.03;;;;;;;3.82;82.32;102924.66;5051155;28;1270289;-79
2022/01/20 11:37:35;;;;;;;13.80;2.38;;;;;;;3.87;81.37;102913.28;5087039;28;20031;-81
2022/01/20 11:40:12;;;;;;;22.95;3.00;;;;;;;3.91;80.68;102917.56;5089770;28;20016;-82
2022/01/20 11:42:38;;;;;;;21.13;2.92;;;;;;;3.90;80.28;102904.56;5086972;28;20102;-79
2022/01/20 11:45:32;;;;;;;17.65;2.70;;;;;;;3.96;81.57;102917.50;5087382;28;20112;-79
2022/01/20 11:47:58;;;;;;;20.50;3.47;;;;;;;3.96;80.04;102909.69;5087572;28;20114;-79
2022/01/20 11:50:24;;;;;;;20.30;2.83;;;;;;;3.95;80.92;102905.38;5087367;28;20027;-79
2022/01/20 11:52:50;;;;;;;14.77;2.80;;;;;;;3.94;80.72;102907.13;5095713;28;20039;-79
2022/01/20 11:55:17;;;;;;;20.50;3.13;;;;;;;3.98;79.15;102910.53;5087443;28;20024;-79
2022/01/20 11:57:43;;;;;;;14.65;2.50;;;;;;;3.97;80.67;102907.06;5084495;28;20081;-79
2022/01/20 12:00:30;;;;;;;21.33;2.92;;;;;;;4.02;81.54;102904.44;5084681;28;20028;-79
2022/01/20 12:02:55;;;;;;;17.10;2.92;;;;;;;3.97;81.48;102906.22;5088881;28;20073;-80
2022/01/20 12:05:30;;;;;;;16.95;3.05;;;;;;;4.01;80.88;102932.22;5087769;28;20028;-82
2022/01/20 12:08:10;;;;;;;19.90;3.35;;;;;;;4.00;82.21;102916.59;5088523;28;20040;-82
2022/01/20 12:10:35;;;;;;;16.77;2.80;;;;;;;4.00;80.50;102912.28;5086993;28;20843;-82
2022/01/20 12:13:16;;;;;;;15.57;2.92;;;;;;;4.00;80.95;102903.56;5089490;28;20235;-80
2022/01/20 12:15:48;;;;;;;17.05;2.95;;;;;;;4.00;81.66;102895.75;5087296;28;20059;-80
2022/01/20 12:18:14;;;;;;;12.43;2.33;;;;;;;4.02;82.20;102888.81;5087103;28;20528;-80
2022/01/20 12:20:39;;;;;;;12.27;2.75;;;;;;;4.09;82.37;102887.84;5088807;28;20016;-80
2022/01/20 12:23:04;;;;;;;20.92;3.05;;;;;;;4.19;82.61;102881.59;5089122;28;20531;-80
2022/01/20 12:25:30;;;;;;;17.58;2.92;;;;;;;4.23;81.83;102883.28;5087911;28;20089;-80
2022/01/20 12:28:07;;;;;;;20.30;3.58;;;;;;;4.28;80.81;102888.41;5088822;28;20535;-80